Time;durP1;ratioP1;P1;durP2;ratioP2;P2;SDS_P1;SDS_P2;PMS_P1;PMS_P2;Temp;Humidity;BMP_temperature;BMP_pressure;BME280_temperature;BME280_humidity;BME280_pressure;Samples;Min_cycle;Max_cycle;Signal;HPM_P1;HPM_P2
2024/03/07 00:03:03;;;;;;;0.52;0.52;;;;;;;6.53;81.91;102172.22;15798519;28;20127;-47
2024/03/07 00:10:38;;;;;;;9.40;3.83;;;;;;;6.30;82.87;102172.59;15818880;28;20206;-49
2024/03/07 00:18:15;;;;;;;2.95;1.55;;;;;;;6.13;83.27;102168.00;15797580;28;20055;-48
2024/03/07 00:25:50;;;;;;;3.53;2.63;;;;;;;6.29;82.69;102167.38;15790105;28;20040;-49
2024/03/07 00:33:25;;;;;;;4.53;1.73;;;;;;;7.04;80.24;102160.06;15790457;28;20036;-49
2024/03/07 00:41:00;;;;;;;2.30;1.65;;;;;;;6.84;80.97;102167.38;15789832;28;20451;-48
2024/03/07 00:48:35;;;;;;;15.50;4.28;;;;;;;6.45;82.05;102166.75;15789170;28;20048;-50
2024/03/07 00:56:10;;;;;;;0.52;0.43;;;;;;;6.48;82.36;102159.31;15789674;28;20070;-48
2024/03/07 01:03:44;;;;;;;3.58;2.45;;;;;;;6.50;81.70;102151.16;15789044;28;20076;-49
2024/03/07 01:11:22;;;;;;;26.48;2.42;;;;;;;6.14;83.17;102149.19;15789251;28;20619;-47
2024/03/07 01:18:56;;;;;;;2.30;2.10;;;;;;;6.14;82.90;102135.03;15786870;28;20044;-48
2024/03/07 01:26:33;;;;;;;6.63;3.80;;;;;;;6.18;82.83;102146.25;15784834;28;20439;-51
2024/03/07 01:34:10;;;;;;;4.13;1.85;;;;;;;6.28;81.94;102147.03;15783762;28;20556;-51
2024/03/07 01:41:49;;;;;;;2.60;2.38;;;;;;;5.87;83.65;102149.13;15787746;28;20562;-48
2024/03/07 01:49:23;;;;;;;5.00;2.78;;;;;;;5.82;83.60;102152.22;15798811;28;20048;-48
2024/03/07 01:56:59;;;;;;;0.85;0.85;;;;;;;5.82;83.16;102152.22;15780706;28;20037;-49
2024/03/07 02:04:32;;;;;;;1.83;1.50;;;;;;;5.87;82.49;102149.13;15797035;28;20051;-48
2024/03/07 02:12:08;;;;;;;1.92;1.77;;;;;;;5.79;81.34;102155.19;15798635;28;20036;-48
2024/03/07 02:19:42;;;;;;;2.15;1.02;;;;;;;5.51;81.42;102151.59;15796876;28;20127;-50
2024/03/07 02:27:17;;;;;;;;;;;;;;;5.41;80.70;102147.25;15797199;28;20063;-47
2024/03/07 02:34:50;;;;;;;2.78;2.47;;;;;;;5.17;81.73;102142.34;15796893;28;19920;-47
2024/03/07 02:42:25;;;;;;;;;;;;;;;5.09;82.00;102135.94;15793670;28;20040;-50
2024/03/07 02:50:00;;;;;;;10.88;5.15;;;;;;;5.28;81.59;102136.91;15790888;28;19951;-50
2024/03/07 02:57:35;;;;;;;2.28;2.17;;;;;;;4.90;83.86;102138.59;15793732;28;20384;-48
2024/03/07 03:05:09;;;;;;;12.55;5.05;;;;;;;5.07;83.00;102135.22;15776967;28;20119;-47
2024/03/07 03:12:45;;;;;;;1.27;1.17;;;;;;;5.11;83.09;102139.28;15774729;28;20028;-49
2024/03/07 03:20:33;;;;;;;3.75;2.22;;;;;;;4.96;83.79;102143.34;15793573;28;20055;-51
2024/03/07 03:28:10;;;;;;;1.70;1.60;;;;;;;4.80;84.04;102138.59;15793500;28;20357;-49
2024/03/07 03:35:44;;;;;;;2.60;1.52;;;;;;;4.79;84.13;102141.34;15774931;28;20397;-49
2024/03/07 03:43:20;;;;;;;0.93;0.85;;;;;;;4.90;83.29;102153.72;15792840;28;20105;-50
2024/03/07 03:50:55;;;;;;;0.60;0.60;;;;;;;4.87;83.14;102157.47;15792603;28;20474;-51
2024/03/07 03:58:31;;;;;;;15.55;1.52;;;;;;;4.83;82.48;102156.91;15772249;28;20420;-47
2024/03/07 04:06:08;;;;;;;1.65;1.55;;;;;;;4.83;82.43;102164.06;15787354;28;20574;-49
2024/03/07 04:13:42;;;;;;;5.18;1.45;;;;;;;4.80;82.26;102162.53;15790812;28;20123;-49
2024/03/07 04:21:16;;;;;;;2.53;2.05;;;;;;;4.53;84.17;102168.47;15822595;28;20526;-47
2024/03/07 04:28:52;;;;;;;1.40;1.30;;;;;;;4.61;82.49;102163.28;15833540;28;20112;-47
2024/03/07 04:36:36;;;;;;;1.45;1.35;;;;;;;4.18;84.11;102168.06;15851327;28;20403;-49
2024/03/07 04:44:11;;;;;;;1.48;1.38;;;;;;;3.85;85.09;102164.69;15832906;28;20039;-51
2024/03/07 04:51:47;;;;;;;6.43;1.80;;;;;;;3.78;85.04;102166.19;15824156;28;20047;-50
2024/03/07 04:59:24;;;;;;;0.10;0.10;;;;;;;4.02;84.11;102172.03;15828805;28;20051;-50
2024/03/07 05:06:58;;;;;;;5.72;2.30;;;;;;;3.81;83.59;102172.06;15797322;28;20040;-51
2024/03/07 05:14:32;;;;;;;;;;;;;;;3.81;83.15;102180.03;15828341;28;20040;-53
2024/03/07 05:22:06;;;;;;;1.80;1.38;;;;;;;3.31;84.84;102181.63;15857494;28;20241;-49
2024/03/07 05:29:41;;;;;;;0.73;0.73;;;;;;;3.41;84.51;102195.84;15855368;28;20511;-50
2024/03/07 05:37:15;;;;;;;2.40;1.73;;;;;;;3.18;84.42;102191.59;15860165;28;20040;-48
2024/03/07 05:45:08;;;;;;;0.30;0.30;;;;;;;3.19;84.28;102193.25;15851192;28;20109;-51
2024/03/07 05:52:44;;;;;;;0.30;0.30;;;;;;;3.43;82.73;102193.03;15827849;28;20597;-49
2024/03/07 06:00:26;;;;;;;0.75;0.75;;;;;;;3.07;84.38;102206.53;15826514;28;20048;-50
2024/03/07 06:08:00;;;;;;;0.75;0.75;;;;;;;2.97;84.18;102208.25;15836508;28;20040;-49
2024/03/07 06:15:37;;;;;;;2.33;1.92;;;;;;;3.17;83.96;102208.44;15821641;28;20020;-50
2024/03/07 06:23:12;;;;;;;0.75;0.75;;;;;;;3.29;83.59;102208.28;15782181;28;20542;-49
2024/03/07 06:30:48;;;;;;;3.63;1.38;;;;;;;3.38;82.88;102219.97;15795717;28;20040;-47
2024/03/07 06:38:23;;;;;;;2.67;2.10;;;;;;;3.36;82.62;102226.34;15787694;28;20055;-49
2024/03/07 06:45:58;;;;;;;16.42;2.65;;;;;;;3.54;82.21;102232.78;15794450;28;20451;-50
2024/03/07 06:53:31;;;;;;;2.17;1.92;;;;;;;3.63;80.54;102231.19;15796119;28;20054;-51
2024/03/07 07:01:09;;;;;;;3.15;1.88;;;;;;;3.82;77.82;102232.19;15796251;28;20051;-49
2024/03/07 07:08:45;;;;;;;0.30;0.30;;;;;;;4.25;74.69;102248.94;15794192;28;20354;-51
2024/03/07 07:16:20;;;;;;;1.55;0.85;;;;;;;4.98;71.12;102249.63;15794587;28;20485;-52
2024/03/07 07:23:54;;;;;;;1.27;1.15;;;;;;;5.33;67.00;102241.16;15816435;28;20547;-51
2024/03/07 07:31:35;;;;;;;0.35;0.35;;;;;;;5.36;65.23;102247.06;15784121;28;20071;-53
2024/03/07 07:39:16;;;;;;;0.20;0.20;;;;;;;5.54;63.68;102254.31;15800553;28;20040;-53
2024/03/07 07:46:52;;;;;;;3.67;2.30;;;;;;;6.09;61.93;102250.09;15779629;28;20430;-54
2024/03/07 07:54:26;;;;;;;0.35;0.25;;;;;;;6.08;60.81;102237.75;15800551;28;20043;-50
2024/03/07 08:02:01;;;;;;;2.33;1.30;;;;;;;6.48;59.66;102242.00;15800053;28;20134;-51
2024/03/07 08:09:36;;;;;;;0.95;0.88;;;;;;;6.41;58.07;102245.38;15798280;28;20071;-50
2024/03/07 08:17:12;;;;;;;0.43;0.43;;;;;;;6.54;56.74;102237.91;15792896;28;20040;-50
2024/03/07 08:24:48;;;;;;;1.88;1.23;;;;;;;7.12;55.57;102243.75;15830193;28;20492;-52
2024/03/07 08:32:22;;;;;;;;;;;;;;;7.55;54.42;102239.47;15803344;28;20506;-49
2024/03/07 08:39:56;;;;;;;0.45;0.45;;;;;;;7.91;53.19;102242.97;15838140;28;19946;-50
2024/03/07 08:47:31;;;;;;;;;;;;;;;7.35;54.82;102236.13;15836303;28;20029;-51
2024/03/07 08:55:09;;;;;;;0.30;0.28;;;;;;;8.61;50.94;102244.75;15844246;28;19947;-50
2024/03/07 09:02:44;;;;;;;0.45;0.35;;;;;;;8.76;47.69;102208.34;15811160;28;20039;-53
2024/03/07 09:10:19;;;;;;;0.45;0.45;;;;;;;9.02;49.49;102243.06;15824002;28;20055;-51
2024/03/07 09:17:54;;;;;;;1.00;0.77;;;;;;;8.99;47.63;102248.75;15831712;28;20044;-50
2024/03/07 09:25:32;;;;;;;1.55;0.55;;;;;;;9.73;46.34;102248.88;15827198;28;20142;-51
2024/03/07 09:33:10;;;;;;;2.05;0.90;;;;;;;9.35;44.93;102237.78;15836474;28;20135;-52
2024/03/07 09:40:47;;;;;;;0.47;0.47;;;;;;;9.66;43.32;102240.66;15796635;28;20043;-49
2024/03/07 09:48:25;;;;;;;0.17;0.17;;;;;;;9.68;44.54;102231.44;15843765;28;20043;-48
2024/03/07 09:56:01;;;;;;;1.02;0.52;;;;;;;9.32;42.65;102227.38;15854902;28;20141;-50
2024/03/07 10:03:42;;;;;;;0.10;0.10;;;;;;;9.99;41.83;102229.91;15863372;28;20150;-49
2024/03/07 10:11:16;;;;;;;3.60;0.98;;;;;;;9.36;43.58;102221.53;15853413;28;20036;-54
2024/03/07 10:18:51;;;;;;;4.47;1.73;;;;;;;10.12;41.48;102219.50;15787315;28;20040;-50
2024/03/07 10:26:26;;;;;;;1.65;1.55;;;;;;;10.85;39.72;102215.72;15805459;28;20037;-52
2024/03/07 10:34:01;;;;;;;0.93;0.85;;;;;;;10.52;40.71;102215.88;15821795;28;20107;-50
2024/03/07 10:41:37;;;;;;;1.50;0.90;;;;;;;11.03;37.64;102212.78;15829785;28;20043;-53
2024/03/07 10:49:17;;;;;;;16.98;2.08;;;;;;;10.11;39.45;102199.03;15840341;28;20051;-48
2024/03/07 10:57:06;;;;;;;1.33;0.85;;;;;;;10.70;39.21;102188.78;15851577;28;20114;-50
2024/03/07 11:04:41;;;;;;;0.17;0.17;;;;;;;11.42;37.47;102192.03;15835374;28;20039;-51
2024/03/07 11:12:17;;;;;;;0.43;0.43;;;;;;;11.11;39.18;102188.56;15845956;28;20312;-54
2024/03/07 11:19:52;;;;;;;1.70;1.45;;;;;;;12.49;36.37;102172.94;15824662;28;20051;-51
2024/03/07 11:27:26;;;;;;;1.38;1.00;;;;;;;11.78;37.06;102163.63;15790252;28;20059;-50
2024/03/07 11:35:07;;;;;;;2.80;1.42;;;;;;;11.92;37.00;102158.28;15788845;28;20040;-50
2024/03/07 11:42:46;;;;;;;0.00;0.00;;;;;;;12.80;34.93;102153.03;15790584;28;20563;-50
2024/03/07 11:50:25;;;;;;;2.17;1.02;;;;;;;11.98;37.07;102143.25;15780014;28;20062;-50
2024/03/07 11:58:01;;;;;;;2.83;1.08;;;;;;;11.63;37.86;102139.41;15790541;28;20036;-54
2024/03/07 12:05:37;;;;;;;0.57;0.57;;;;;;;12.51;36.61;102125.13;15797866;28;20502;-52
2024/03/07 12:13:12;;;;;;;0.63;0.38;;;;;;;11.69;36.26;102107.22;15798548;28;20497;-52
2024/03/07 12:20:51;;;;;;;0.20;0.20;;;;;;;11.26;37.00;102111.50;15805238;28;20040;-51
2024/03/07 12:28:25;;;;;;;0.57;0.55;;;;;;;12.79;33.27;102106.38;15831688;28;20036;-51
2024/03/07 12:36:16;;;;;;;0.90;0.90;;;;;;;11.86;36.11;102094.47;15833702;28;20039;-51
2024/03/07 12:43:50;;;;;;;1.00;1.00;;;;;;;12.63;33.40;102093.97;15839978;28;20060;-55
2024/03/07 12:51:25;;;;;;;2.75;1.38;;;;;;;11.42;35.29;102054.91;15817674;28;20131;-51
2024/03/07 12:59:00;;;;;;;0.08;0.08;;;;;;;11.25;35.55;102082.97;15822976;28;20036;-52
2024/03/07 13:06:35;;;;;;;1.30;1.00;;;;;;;12.13;34.97;102066.06;15824017;28;20040;-48
2024/03/07 13:14:09;;;;;;;0.75;0.45;;;;;;;12.47;33.54;102065.44;15830356;28;20036;-52
2024/03/07 13:21:44;;;;;;;0.35;0.35;;;;;;;11.31;35.25;102067.94;15813094;28;20074;-52
2024/03/07 13:29:24;;;;;;;0.45;0.25;;;;;;;11.51;35.10;102055.63;15816789;28;20381;-52
2024/03/07 13:37:01;;;;;;;0.03;0.03;;;;;;;10.62;34.80;102051.88;15834330;28;20156;-50
2024/03/07 13:44:35;;;;;;;0.85;0.70;;;;;;;10.25;35.39;102052.59;15853700;28;20046;-51
2024/03/07 13:52:18;;;;;;;0.50;0.50;;;;;;;9.63;36.80;102051.47;15820496;28;20487;-52
2024/03/07 14:00:18;;;;;;;0.57;0.20;;;;;;;9.03;35.69;102025.13;15865322;28;20123;-52
2024/03/07 14:08:16;;;;;;;0.68;0.68;;;;;;;8.81;37.04;102037.38;15848165;28;20042;-56
2024/03/07 14:16:20;;;;;;;2.47;1.35;;;;;;;8.98;38.23;102030.16;15830922;28;20115;-53
2024/03/07 14:24:26;;;;;;;0.40;0.40;;;;;;;8.49;38.32;102043.50;15801707;28;20404;-51
2024/03/07 14:32:02;;;;;;;0.30;0.30;;;;;;;8.77;38.18;102037.88;15796561;28;20463;-54
2024/03/07 14:39:39;;;;;;;0.50;0.50;;;;;;;8.63;38.82;102032.16;15799101;28;20183;-51
2024/03/07 14:47:15;;;;;;;6.55;2.90;;;;;;;8.37;38.63;101994.81;15794234;28;20167;-50
2024/03/07 14:54:51;;;;;;;1.35;1.08;;;;;;;8.55;38.46;102023.28;15795934;28;20039;-53
2024/03/07 15:02:27;;;;;;;0.50;0.50;;;;;;;8.49;38.63;102016.75;15792770;28;20048;-48
2024/03/07 15:10:06;;;;;;;0.77;0.77;;;;;;;8.46;40.19;102027.78;15793413;28;20040;-51
2024/03/07 15:17:40;;;;;;;4.10;1.02;;;;;;;8.36;39.89;102021.72;15787939;28;20086;-52
2024/03/07 15:25:17;;;;;;;0.70;0.70;;;;;;;8.40;39.01;102025.78;15788677;28;20052;-50
2024/03/07 15:32:53;;;;;;;0.20;0.20;;;;;;;8.10;39.51;102011.09;15846209;28;20039;-50
2024/03/07 15:40:32;;;;;;;0.77;0.77;;;;;;;7.64;41.16;102011.41;15828101;28;20093;-48
2024/03/07 15:48:12;;;;;;;1.05;1.05;;;;;;;7.53;41.50;102006.38;15801293;28;20568;-49
2024/03/07 15:55:48;;;;;;;0.10;0.10;;;;;;;7.61;41.12;102009.09;15850353;28;20293;-50
2024/03/07 16:03:24;;;;;;;0.20;0.20;;;;;;;7.54;41.86;102007.19;15849676;28;20039;-51
2024/03/07 16:11:02;;;;;;;0.93;0.93;;;;;;;7.05;42.00;102005.06;15823660;28;20081;-50
2024/03/07 16:18:36;;;;;;;0.20;0.20;;;;;;;7.10;42.91;102000.09;15809256;28;20454;-53
2024/03/07 16:26:11;;;;;;;2.92;1.88;;;;;;;7.14;42.07;101996.13;15777387;28;20044;-49
2024/03/07 16:33:45;;;;;;;0.57;0.52;;;;;;;7.47;42.53;102007.00;15791460;28;20047;-51
2024/03/07 16:41:20;;;;;;;;;;;;;;;7.02;42.71;102007.22;15792767;28;20439;-49
2024/03/07 16:48:55;;;;;;;2.65;1.00;;;;;;;7.16;43.39;101998.63;15792346;28;19924;-51
2024/03/07 16:56:31;;;;;;;0.47;0.47;;;;;;;6.64;44.82;101999.41;15781366;28;20104;-52
2024/03/07 17:04:07;;;;;;;0.60;0.60;;;;;;;6.69;44.51;101998.13;15773454;28;20051;-49
2024/03/07 17:11:42;;;;;;;7.32;1.50;;;;;;;6.34;45.54;101999.78;15794120;28;20439;-47
2024/03/07 17:19:17;;;;;;;2.42;1.92;;;;;;;6.30;46.07;102003.75;15803383;28;20040;-48
2024/03/07 17:26:52;;;;;;;2.30;0.85;;;;;;;6.90;46.39;102001.28;15804923;28;20047;-50
2024/03/07 17:34:27;;;;;;;1.05;0.65;;;;;;;6.04;47.27;102003.63;15804451;28;20040;-48
2024/03/07 17:42:10;;;;;;;1.45;1.08;;;;;;;6.56;46.24;102010.00;15785843;28;20508;-49
2024/03/07 17:49:44;;;;;;;0.32;0.22;;;;;;;6.11;46.98;102012.72;15803912;28;20567;-48
2024/03/07 17:57:19;;;;;;;;;;;;;;;6.49;47.18;102008.94;15803182;28;20040;-52
2024/03/07 18:04:52;;;;;;;2.20;1.75;;;;;;;5.42;48.46;102015.81;15798945;28;20405;-54
2024/03/07 18:12:27;;;;;;;;;;;;;;;5.75;49.18;102007.25;15799390;28;20178;-48
2024/03/07 18:20:03;;;;;;;0.20;0.20;;;;;;;5.72;48.94;102020.88;15811439;28;20004;-51
2024/03/07 18:27:38;;;;;;;2.63;2.38;;;;;;;5.32;49.66;102011.34;15846961;28;20035;-49
2024/03/07 18:35:11;;;;;;;0.08;0.08;;;;;;;4.91;51.26;102004.56;15834426;28;20092;-48
2024/03/07 18:42:51;;;;;;;0.40;0.40;;;;;;;5.53;50.38;102019.13;15830660;28;20311;-48
2024/03/07 18:50:26;;;;;;;1.48;1.10;;;;;;;5.84;50.23;102017.03;15829937;28;20043;-46
2024/03/07 18:58:04;;;;;;;0.25;0.25;;;;;;;5.38;50.14;102029.41;15806793;28;20135;-50
2024/03/07 19:05:40;;;;;;;2.88;1.10;;;;;;;5.26;50.84;102029.72;15824869;28;20131;-51
2024/03/07 19:13:17;;;;;;;2.60;0.85;;;;;;;5.61;50.69;102029.91;15844175;28;20050;-53
2024/03/07 19:20:54;;;;;;;1.55;1.45;;;;;;;5.32;50.92;102027.34;15848178;28;20047;-50
2024/03/07 19:28:29;;;;;;;0.47;0.20;;;;;;;4.35;54.59;102034.53;15837015;28;20031;-51
2024/03/07 19:36:04;;;;;;;1.05;0.95;;;;;;;4.12;54.71;102027.75;15841886;28;20044;-52
2024/03/07 19:43:42;;;;;;;0.20;0.20;;;;;;;4.13;54.79;102030.28;15809775;28;20116;-50
2024/03/07 19:51:16;;;;;;;0.77;0.77;;;;;;;3.85;56.39;102026.56;15827488;28;20519;-48
2024/03/07 19:58:51;;;;;;;0.00;0.00;;;;;;;3.63;57.50;102029.41;15809228;28;20036;-51
2024/03/07 20:06:25;;;;;;;0.75;0.75;;;;;;;3.87;57.09;102023.75;15820488;28;20071;-50
2024/03/07 20:14:01;;;;;;;0.20;0.20;;;;;;;3.69;57.70;102018.28;15835528;28;20046;-47
2024/03/07 20:21:36;;;;;;;1.50;0.68;;;;;;;3.48;59.05;102023.63;15838349;28;20046;-48
2024/03/07 20:29:12;;;;;;;0.15;0.15;;;;;;;3.44;58.68;102019.53;15847953;28;20063;-47
2024/03/07 20:36:46;;;;;;;0.35;0.35;;;;;;;3.20;59.80;102012.72;15860305;28;20035;-48
2024/03/07 20:44:24;;;;;;;2.45;1.20;;;;;;;3.34;59.53;102016.84;15822875;28;20088;-47
2024/03/07 20:51:58;;;;;;;0.13;0.13;;;;;;;3.17;60.19;102023.59;15837992;28;20109;-50
2024/03/07 20:59:36;;;;;;;0.32;0.32;;;;;;;3.26;59.77;102024.59;15846475;28;20032;-50
2024/03/07 21:07:10;;;;;;;0.10;0.10;;;;;;;4.07;57.79;102018.38;15822406;28;20412;-50
2024/03/07 21:14:45;;;;;;;0.60;0.60;;;;;;;3.77;58.37;102016.59;15847369;28;20032;-51
2024/03/07 21:22:19;;;;;;;3.10;0.40;;;;;;;3.36;59.44;102016.69;15793624;28;20521;-52
2024/03/07 21:29:54;;;;;;;1.15;0.52;;;;;;;3.62;58.44;102017.09;15838724;28;20416;-49
2024/03/07 21:37:27;;;;;;;0.85;0.80;;;;;;;3.04;60.32;102010.53;15838007;28;20480;-49
2024/03/07 21:45:04;;;;;;;0.73;0.73;;;;;;;2.74;61.56;102013.94;15816082;28;20669;-51
2024/03/07 21:52:39;;;;;;;0.52;0.43;;;;;;;3.29;59.36;102011.09;15811369;28;20044;-49
2024/03/07 22:00:17;;;;;;;2.45;1.15;;;;;;;3.02;60.37;102003.66;15842637;28;20446;-51
2024/03/07 22:07:53;;;;;;;0.45;0.45;;;;;;;3.55;58.79;102006.19;15862362;28;20047;-50
2024/03/07 22:15:30;;;;;;;2.40;1.15;;;;;;;3.17;59.93;102001.50;15806290;28;20063;-50
2024/03/07 22:23:07;;;;;;;0.08;0.08;;;;;;;3.24;59.83;101997.38;15851405;28;20071;-47
2024/03/07 22:30:46;;;;;;;1.67;0.85;;;;;;;3.02;60.13;102009.81;15843466;28;20040;-48
2024/03/07 22:38:22;;;;;;;0.30;0.30;;;;;;;2.04;63.76;101999.34;15852944;28;20134;-46
2024/03/07 22:45:59;;;;;;;0.00;0.00;;;;;;;2.60;61.70;101993.03;15858072;28;20036;-48
2024/03/07 22:53:32;;;;;;;0.00;0.00;;;;;;;2.77;61.73;101986.34;15845926;28;20045;-46
2024/03/07 23:01:11;;;;;;;0.25;0.25;;;;;;;2.59;62.00;101977.25;15855458;28;20101;-46
2024/03/07 23:08:45;;;;;;;0.63;0.52;;;;;;;2.65;62.35;101969.63;15856801;28;20558;-46
2024/03/07 23:16:20;;;;;;;0.03;0.03;;;;;;;2.55;61.82;101963.41;15854018;28;20461;-50
2024/03/07 23:23:54;;;;;;;0.20;0.20;;;;;;;2.45;62.46;101957.22;15846516;28;20381;-51
2024/03/07 23:31:30;;;;;;;0.45;0.45;;;;;;;2.43;62.00;101956.50;15838818;28;20392;-48
2024/03/07 23:39:04;;;;;;;0.10;0.10;;;;;;;2.33;62.16;101952.91;15818635;28;20557;-48
2024/03/07 23:46:39;;;;;;;1.65;0.60;;;;;;;2.17;63.06;101956.84;15849633;28;20040;-48
2024/03/07 23:54:12;;;;;;;2.13;1.40;;;;;;;2.25;62.09;101956.22;15834706;28;20104;-47
